createdAt,value
2019-03-01T00:00:55.233Z,92.02
2019-03-01T00:01:55.085Z,93.05
2019-03-01T00:02:55.079Z,93.56
2019-03-01T00:03:55.044Z,93.56
2019-03-01T00:04:55.027Z,93.66
2019-03-01T00:05:55.030Z,93.66
2019-03-01T00:06:55.013Z,93.77
2019-03-01T00:07:55.024Z,93.05
2019-03-01T00:08:54.985Z,92.57
2019-03-01T00:09:55.003Z,92.57
2019-03-01T00:10:54.986Z,93.19
2019-03-01T00:11:55.008Z,93.25
2019-03-01T00:12:54.944Z,93.25
2019-03-01T00:13:54.947Z,93.50
2019-03-01T00:14:54.926Z,93.50
2019-03-01T00:15:54.915Z,95.00
2019-03-01T00:16:54.942Z,94.74
2019-03-01T00:17:54.900Z,95.05
2019-03-01T00:18:54.886Z,94.95
2019-03-01T00:19:54.885Z,95.15
2019-03-01T00:20:54.865Z,94.80
2019-03-01T00:21:54.887Z,94.12
2019-03-01T00:22:54.834Z,95.15
2019-03-01T00:23:54.830Z,94.95
2019-03-01T00:24:54.825Z,94.23
2019-03-01T00:25:54.821Z,94.12
2019-03-01T00:26:54.826Z,93.30
2019-03-01T00:27:54.786Z,92.88
2019-03-01T00:28:54.784Z,93.30
2019-03-01T00:29:54.800Z,92.94
2019-03-01T00:30:54.760Z,93.87
2019-03-01T00:31:54.748Z,93.35
2019-03-01T00:32:54.738Z,93.50
2019-03-01T00:33:54.724Z,93.81
2019-03-01T00:34:54.719Z,93.50
2019-03-01T00:35:54.727Z,93.40
2019-03-01T00:36:54.723Z,93.71
2019-03-01T00:37:54.686Z,93.60
2019-03-01T00:38:54.671Z,91.64
2019-03-01T00:39:54.661Z,91.91
2019-03-01T00:40:54.649Z,91.75
2019-03-01T00:41:54.651Z,91.75
2019-03-01T00:42:54.660Z,91.60
2019-03-01T00:43:54.629Z,92.47
2019-03-01T00:44:54.735Z,91.85
2019-03-01T00:45:54.610Z,92.02
2019-03-01T00:46:54.599Z,92.57
2019-03-01T00:47:54.696Z,92.47
2019-03-01T00:48:54.580Z,92.16
2019-03-01T00:49:54.560Z,91.64
2019-03-01T00:50:54.585Z,92.37
2019-03-01T00:51:54.537Z,91.64
2019-03-01T00:52:54.526Z,91.75
2019-03-01T00:53:54.517Z,91.54
2019-03-01T00:54:54.505Z,91.34
2019-03-01T00:55:54.526Z,90.57
2019-03-01T00:56:54.490Z,90.00
2019-03-01T00:57:54.490Z,88.04
2019-03-01T00:58:54.473Z,86.04
2019-03-01T00:59:54.456Z,86.45
2019-03-01T01:00:54.481Z,86.66
2019-03-01T01:01:54.477Z,86.76
2019-03-01T01:02:54.426Z,86.55
2019-03-01T01:03:54.418Z,85.31
2019-03-01T01:04:54.599Z,85.83
2019-03-01T01:05:54.397Z,85.73
2019-03-01T01:06:54.408Z,84.70
2019-03-01T01:07:54.404Z,83.05
2019-03-01T01:08:54.366Z,82.50
2019-03-01T01:09:54.360Z,81.98
2019-03-01T01:10:54.352Z,81.37
2019-03-01T01:11:54.364Z,81.88
2019-03-01T01:12:54.329Z,81.88
2019-03-01T01:13:54.335Z,83.01
2019-03-01T01:14:54.298Z,83.42
2019-03-01T01:15:54.310Z,83.77
2019-03-01T01:16:54.289Z,82.02
2019-03-01T01:17:54.272Z,84.39
2019-03-01T01:18:54.265Z,82.95
2019-03-01T01:19:54.283Z,83.47
2019-03-01T01:20:54.247Z,82.64
2019-03-01T01:21:54.242Z,83.15
2019-03-01T01:22:54.220Z,82.12
2019-03-01T01:23:54.238Z,82.54
2019-03-01T01:24:54.205Z,81.40
2019-03-01T01:25:54.191Z,81.37
2019-03-01T01:26:54.182Z,81.26
2019-03-01T01:27:54.174Z,81.37
2019-03-01T01:28:54.192Z,81.33
2019-03-01T01:29:54.154Z,81.88
2019-03-01T01:30:54.148Z,80.95
2019-03-01T01:31:54.158Z,80.75
2019-03-01T01:32:54.163Z,80.61
2019-03-01T01:33:54.120Z,81.05
2019-03-01T01:34:54.103Z,79.99
2019-03-01T01:35:54.095Z,80.44
2019-03-01T01:36:54.077Z,80.54
2019-03-01T01:37:54.059Z,80.44
2019-03-01T01:38:54.346Z,80.33
2019-03-01T01:39:54.061Z,79.61
2019-03-01T01:40:54.036Z,80.33
2019-03-01T01:41:54.062Z,80.13
2019-03-01T01:42:54.024Z,80.33
2019-03-01T01:43:54.010Z,80.33
2019-03-01T01:44:54.058Z,80.99
2019-03-01T01:45:53.997Z,80.79
2019-03-01T01:46:53.983Z,80.06
2019-03-01T01:47:53.970Z,80.13
2019-03-01T01:48:53.950Z,80.75
2019-03-01T01:49:53.944Z,80.89
2019-03-01T01:50:53.960Z,80.68
2019-03-01T01:51:53.943Z,80.89
2019-03-01T01:52:54.300Z,80.79
2019-03-01T01:53:53.904Z,79.72
2019-03-01T01:54:53.887Z,79.72
2019-03-01T01:55:53.878Z,80.30
2019-03-01T01:56:53.920Z,79.72
2019-03-01T01:57:53.860Z,79.79
2019-03-01T01:58:53.857Z,80.23
2019-03-01T01:59:53.842Z,80.85
2019-03-01T02:00:54.485Z,79.51
2019-03-01T02:01:53.849Z,79.99
2019-03-01T02:02:53.798Z,80.71
2019-03-01T02:03:53.795Z,79.37
2019-03-01T02:04:53.787Z,79.37
2019-03-01T02:05:53.782Z,79.88
2019-03-01T02:06:53.800Z,81.43
2019-03-01T02:07:53.749Z,82.25
2019-03-01T02:08:53.744Z,81.63
2019-03-01T02:09:53.729Z,81.84
2019-03-01T02:10:53.724Z,83.18
2019-03-01T02:11:53.710Z,82.67
2019-03-01T02:12:53.731Z,82.56
2019-03-01T02:13:53.696Z,82.81
2019-03-01T02:14:53.684Z,83.49
2019-03-01T02:15:53.697Z,84.31
2019-03-01T02:16:53.665Z,84.56
2019-03-01T02:17:53.652Z,84.05
2019-03-01T02:18:57.760Z,84.77
2019-03-01T02:19:53.629Z,84.66
2019-03-01T02:20:53.621Z,86.00
2019-03-01T02:21:53.612Z,86.52
2019-03-01T02:22:53.626Z,85.17
2019-03-01T02:23:53.596Z,84.87
2019-03-01T02:24:53.577Z,84.66
2019-03-01T02:25:53.574Z,84.77
2019-03-01T02:26:53.558Z,86.10
2019-03-01T02:27:53.584Z,85.69
2019-03-01T02:28:53.536Z,85.38
2019-03-01T02:29:53.525Z,85.38
2019-03-01T02:30:53.514Z,84.66
2019-03-01T02:31:53.503Z,84.77
2019-03-01T02:32:53.532Z,85.55
2019-03-01T02:33:53.492Z,85.89
2019-03-01T02:34:53.480Z,85.79
2019-03-01T02:35:53.472Z,85.59
2019-03-01T02:36:53.458Z,86.61
2019-03-01T02:37:53.479Z,84.25
2019-03-01T02:38:53.435Z,84.93
2019-03-01T02:39:53.423Z,84.83
2019-03-01T02:40:53.414Z,85.34
2019-03-01T02:41:53.400Z,86.58
2019-03-01T02:42:53.423Z,86.06
2019-03-01T02:43:53.386Z,86.37
2019-03-01T02:44:53.387Z,86.61
2019-03-01T02:45:53.365Z,86.58
2019-03-01T02:46:53.354Z,87.24
2019-03-01T02:47:53.367Z,87.34
2019-03-01T02:48:53.328Z,88.99
2019-03-01T02:49:53.326Z,89.09
2019-03-01T02:50:53.309Z,89.75
2019-03-01T02:51:53.297Z,90.37
2019-03-01T02:52:53.337Z,90.26
2019-03-01T02:53:53.289Z,90.47
2019-03-01T02:54:53.280Z,90.67
2019-03-01T02:55:53.259Z,90.47
2019-03-01T02:56:53.244Z,90.33
2019-03-01T02:57:53.233Z,90.37
2019-03-01T02:58:53.259Z,90.37
2019-03-01T02:59:53.217Z,91.09
2019-03-01T03:00:53.244Z,91.81
2019-03-01T03:01:53.233Z,91.60
2019-03-01T03:02:53.185Z,91.91
2019-03-01T03:03:53.214Z,91.81
2019-03-01T03:04:53.172Z,92.57
2019-03-01T03:05:53.156Z,91.85
2019-03-01T03:06:53.157Z,91.50
2019-03-01T03:07:53.975Z,91.64
2019-03-01T03:08:53.153Z,91.75
2019-03-01T03:09:53.124Z,92.06
2019-03-01T03:10:53.314Z,92.78
2019-03-01T03:11:53.310Z,92.37
2019-03-01T03:12:53.324Z,92.37
2019-03-01T03:13:53.308Z,92.78
2019-03-01T03:14:53.541Z,92.99
2019-03-01T03:15:53.305Z,93.40
2019-03-01T03:16:53.270Z,92.99
2019-03-01T03:17:53.305Z,94.02
2019-03-01T03:18:53.507Z,93.30
2019-03-01T03:19:53.240Z,93.30
2019-03-01T03:20:53.264Z,94.95
2019-03-01T03:21:53.446Z,94.43
2019-03-01T03:22:53.275Z,94.84
2019-03-01T03:23:53.464Z,95.09
2019-03-01T03:24:53.197Z,95.05
2019-03-01T03:25:53.216Z,94.74
2019-03-01T03:26:53.171Z,95.15
2019-03-01T03:27:53.162Z,95.81
2019-03-01T03:28:53.166Z,96.84
2019-03-01T03:29:53.382Z,95.20
2019-03-01T03:30:53.515Z,95.81
2019-03-01T03:31:53.151Z,95.50
2019-03-01T03:32:53.139Z,95.81
2019-03-01T03:33:53.358Z,96.53
2019-03-01T03:34:53.127Z,96.64
2019-03-01T03:35:53.104Z,95.61
2019-03-01T03:36:53.068Z,96.64
2019-03-01T03:37:53.092Z,96.64
2019-03-01T03:38:53.289Z,96.33
2019-03-01T03:39:53.050Z,96.74
2019-03-01T03:40:53.062Z,95.71
2019-03-01T03:41:53.052Z,95.20
2019-03-01T03:42:53.025Z,96.53
2019-03-01T03:43:53.218Z,96.74
2019-03-01T03:44:53.219Z,96.74
2019-03-01T03:45:53.026Z,96.64
2019-03-01T03:46:52.999Z,96.23
2019-03-01T03:47:52.990Z,95.81
2019-03-01T03:48:52.990Z,95.71
2019-03-01T03:49:53.154Z,95.81
2019-03-01T03:50:52.911Z,96.84
2019-03-01T03:51:52.896Z,96.74
2019-03-01T03:52:52.890Z,96.02
2019-03-01T03:53:53.139Z,96.74
2019-03-01T03:54:52.884Z,96.95
2019-03-01T03:55:52.866Z,96.84
2019-03-01T03:56:52.916Z,96.84
2019-03-01T03:57:52.831Z,96.95
2019-03-01T03:58:53.121Z,96.74
2019-03-01T03:59:52.828Z,96.74
2019-03-01T04:00:52.827Z,96.64
2019-03-01T04:01:52.808Z,96.64
2019-03-01T04:02:52.814Z,97.47
2019-03-01T04:03:53.054Z,97.67
2019-03-01T04:04:52.803Z,97.47
2019-03-01T04:05:52.793Z,97.56
2019-03-01T04:06:52.790Z,97.56
2019-03-01T04:07:52.747Z,96.95
2019-03-01T04:08:52.971Z,97.56
2019-03-01T04:09:52.778Z,97.98
2019-03-01T04:10:52.725Z,97.67
2019-03-01T04:11:52.701Z,97.98
2019-03-01T04:12:52.687Z,98.50
2019-03-01T04:13:52.904Z,98.50
2019-03-01T04:14:52.662Z,98.50
2019-03-01T04:15:52.658Z,98.60
2019-03-01T04:16:52.650Z,98.29
2019-03-01T04:17:52.590Z,99.22
2019-03-01T04:18:52.863Z,99.32
2019-03-01T04:19:52.611Z,99.06
2019-03-01T04:20:52.594Z,98.39
2019-03-01T04:21:52.572Z,98.80
2019-03-01T04:22:52.590Z,99.22
2019-03-01T04:23:52.790Z,98.80
2019-03-01T04:24:52.544Z,98.39
2019-03-01T04:25:52.475Z,99.11
2019-03-01T04:26:52.513Z,99.01
2019-03-01T04:27:53.407Z,98.91
2019-03-01T04:28:52.681Z,99.01
2019-03-01T04:29:52.455Z,99.11
2019-03-01T04:30:52.447Z,99.22
2019-03-01T04:31:52.441Z,99.52
2019-03-01T04:32:52.416Z,99.78
2019-03-01T04:33:52.652Z,99.88
2019-03-01T04:34:52.402Z,99.99
2019-03-01T04:35:52.392Z,99.99
2019-03-01T04:36:52.624Z,99.99
2019-03-01T04:37:52.383Z,99.99
2019-03-01T04:38:52.636Z,99.99
2019-03-01T04:39:52.317Z,99.99
2019-03-01T04:40:52.329Z,99.99
2019-03-01T04:41:52.367Z,99.99
2019-03-01T04:42:52.308Z,99.99
2019-03-01T04:43:52.561Z,99.99
2019-03-01T04:44:52.282Z,99.99
2019-03-01T04:45:52.295Z,99.99
2019-03-01T04:46:52.245Z,99.99
2019-03-01T04:47:52.510Z,99.99
2019-03-01T04:48:52.935Z,99.99
2019-03-01T04:49:52.495Z,99.99
2019-03-01T04:50:52.241Z,99.99
2019-03-01T04:51:52.223Z,99.99
2019-03-01T04:52:52.263Z,99.99
2019-03-01T04:53:52.235Z,99.99
2019-03-01T04:54:52.508Z,99.99
2019-03-01T04:55:52.206Z,99.99
2019-03-01T04:56:52.944Z,99.99
2019-03-01T04:57:52.420Z,99.99
2019-03-01T04:58:52.207Z,99.99
2019-03-01T04:59:52.159Z,99.99
2019-03-01T05:00:52.186Z,99.99
2019-03-01T05:01:52.942Z,99.99
2019-03-01T05:02:52.326Z,99.99
2019-03-01T05:03:52.161Z,99.99
2019-03-01T05:04:52.132Z,99.99
2019-03-01T05:05:52.094Z,99.99
2019-03-01T05:06:52.100Z,99.99
2019-03-01T05:07:52.324Z,99.99
2019-03-01T05:08:52.112Z,99.99
2019-03-01T05:09:52.072Z,99.99
2019-03-01T05:10:52.073Z,99.99
2019-03-01T05:11:52.257Z,99.99
2019-03-01T05:12:52.045Z,99.99
2019-03-01T05:13:52.042Z,99.99
2019-03-01T05:14:51.995Z,99.99
2019-03-01T05:15:52.045Z,99.99
2019-03-01T05:16:52.216Z,99.99
2019-03-01T05:17:52.030Z,99.99
2019-03-01T05:18:51.968Z,99.99
2019-03-01T05:19:51.975Z,99.99
2019-03-01T05:20:51.979Z,99.99
2019-03-01T05:21:52.181Z,99.99
2019-03-01T05:22:51.739Z,99.99
2019-03-01T05:23:51.733Z,99.99
2019-03-01T05:24:51.709Z,99.99
2019-03-01T05:25:51.696Z,99.99
2019-03-01T05:26:51.765Z,99.99
2019-03-01T05:27:51.677Z,99.99
2019-03-01T05:28:51.662Z,99.99
2019-03-01T05:29:51.653Z,99.99
2019-03-01T05:30:51.669Z,99.99
2019-03-01T05:31:51.623Z,99.99
2019-03-01T05:32:51.621Z,99.99
2019-03-01T05:33:51.631Z,99.99
2019-03-01T05:34:51.594Z,99.99
2019-03-01T05:35:51.583Z,99.99
2019-03-01T05:36:51.575Z,99.99
2019-03-01T05:37:51.565Z,99.99
2019-03-01T05:38:51.571Z,99.99
2019-03-01T05:39:51.562Z,99.99
2019-03-01T05:40:51.528Z,99.99
2019-03-01T05:41:51.517Z,99.99
2019-03-01T05:42:51.514Z,99.99
2019-03-01T05:43:51.498Z,99.99
2019-03-01T05:44:51.489Z,99.99
2019-03-01T05:45:51.512Z,99.99
2019-03-01T05:46:51.470Z,99.99
2019-03-01T05:47:51.468Z,99.99
2019-03-01T05:48:51.554Z,99.99
2019-03-01T05:49:51.435Z,99.99
2019-03-01T05:50:51.423Z,99.99
2019-03-01T05:51:51.442Z,99.99
2019-03-01T05:52:51.408Z,99.99
2019-03-01T05:53:51.393Z,99.99
2019-03-01T05:54:51.413Z,99.99
2019-03-01T05:55:51.373Z,99.99
2019-03-01T05:56:51.351Z,99.99
2019-03-01T05:57:51.385Z,99.99
2019-03-01T05:58:51.340Z,99.99
2019-03-01T05:59:51.331Z,99.99
2019-03-01T06:00:51.340Z,99.99
2019-03-01T06:01:51.311Z,99.99
2019-03-01T06:02:51.340Z,99.99
2019-03-01T06:03:51.297Z,99.99
2019-03-01T06:04:51.274Z,99.99
2019-03-01T06:05:51.269Z,99.99
2019-03-01T06:06:51.261Z,99.99
2019-03-01T06:07:51.249Z,99.99
2019-03-01T06:08:51.273Z,99.99
2019-03-01T06:09:51.218Z,99.99
2019-03-01T06:10:51.212Z,99.99
2019-03-01T06:11:51.230Z,99.99
2019-03-01T06:12:51.192Z,99.99
2019-03-01T06:13:51.179Z,99.99
2019-03-01T06:14:51.178Z,99.99
2019-03-01T06:15:51.157Z,99.99
2019-03-01T06:16:51.196Z,99.99
2019-03-01T06:17:51.148Z,99.99
2019-03-01T06:18:51.285Z,99.99
2019-03-01T06:19:51.134Z,99.99
2019-03-01T06:20:51.133Z,99.99
2019-03-01T06:21:51.097Z,99.99
2019-03-01T06:22:51.127Z,99.99
2019-03-01T06:23:51.989Z,99.99
2019-03-01T06:24:51.065Z,99.99
2019-03-01T06:25:51.057Z,99.99
2019-03-01T06:26:51.046Z,99.99
2019-03-01T06:27:51.064Z,99.99
2019-03-01T06:28:51.020Z,99.99
2019-03-01T06:29:51.008Z,99.99
2019-03-01T06:30:52.087Z,99.99
2019-03-01T06:31:50.997Z,99.99
2019-03-01T06:32:51.010Z,99.99
2019-03-01T06:33:50.971Z,99.99
2019-03-01T06:34:50.961Z,99.99
2019-03-01T06:35:50.942Z,99.99
2019-03-01T06:36:50.940Z,99.99
2019-03-01T06:37:50.972Z,99.99
2019-03-01T06:38:50.918Z,99.99
2019-03-01T06:39:50.938Z,99.99
2019-03-01T06:40:50.907Z,99.99
2019-03-01T06:41:50.892Z,99.99
2019-03-01T06:42:51.072Z,99.99
2019-03-01T06:43:50.865Z,99.99
2019-03-01T06:44:50.862Z,99.99
2019-03-01T06:45:50.888Z,99.99
2019-03-01T06:46:50.839Z,99.99
2019-03-01T06:47:51.033Z,99.99
2019-03-01T06:48:50.815Z,99.99
2019-03-01T06:49:50.812Z,99.99
2019-03-01T06:50:50.786Z,99.99
2019-03-01T06:51:50.791Z,99.99
2019-03-01T06:52:50.796Z,99.99
2019-03-01T06:53:50.781Z,99.99
2019-03-01T06:54:50.748Z,99.99
2019-03-01T06:55:50.749Z,99.99
2019-03-01T06:56:50.728Z,99.99
2019-03-01T06:57:50.747Z,99.99
2019-03-01T06:58:50.718Z,99.99
2019-03-01T06:59:50.704Z,99.99
2019-03-01T07:00:50.793Z,99.99
2019-03-01T07:01:50.675Z,99.99
2019-03-01T07:02:50.701Z,99.99
2019-03-01T07:03:50.667Z,99.99
2019-03-01T07:04:50.663Z,99.99
2019-03-01T07:05:50.626Z,99.99
2019-03-01T07:06:50.642Z,99.99
2019-03-01T07:07:50.651Z,99.99
2019-03-01T07:08:50.607Z,99.99
2019-03-01T07:09:50.600Z,99.99
2019-03-01T07:10:50.627Z,99.99
2019-03-01T07:11:50.590Z,99.99
2019-03-01T07:12:50.593Z,99.99
2019-03-01T07:13:50.544Z,99.99
2019-03-01T07:14:50.556Z,99.99
2019-03-01T07:15:50.529Z,99.99
2019-03-01T07:16:50.552Z,99.99
2019-03-01T07:17:50.550Z,99.99
2019-03-01T07:18:50.507Z,99.99
2019-03-01T07:19:50.489Z,99.99
2019-03-01T07:20:50.477Z,99.99
2019-03-01T07:21:50.480Z,99.99
2019-03-01T07:22:50.502Z,99.99
2019-03-01T07:23:50.465Z,99.99
2019-03-01T07:24:50.443Z,99.99
2019-03-01T07:25:50.442Z,99.99
2019-03-01T07:26:50.453Z,99.99
2019-03-01T07:27:50.447Z,99.99
2019-03-01T07:28:50.403Z,99.99
2019-03-01T07:29:50.385Z,99.99
2019-03-01T07:30:50.376Z,99.99
2019-03-01T07:31:50.372Z,99.99
2019-03-01T07:32:50.353Z,99.99
2019-03-01T07:33:50.375Z,99.99
2019-03-01T07:34:50.332Z,99.99
2019-03-01T07:35:50.316Z,99.99
2019-03-01T07:36:50.313Z,99.99
2019-03-01T07:37:50.314Z,99.99
2019-03-01T07:38:50.351Z,99.99
2019-03-01T07:39:50.286Z,99.99
2019-03-01T07:40:50.270Z,99.99
2019-03-01T07:41:50.261Z,99.99
2019-03-01T07:42:50.252Z,99.99
2019-03-01T07:43:50.247Z,99.99
2019-03-01T07:44:50.273Z,99.99
2019-03-01T07:45:50.234Z,99.99
2019-03-01T07:46:53.226Z,99.99
2019-03-01T07:47:50.205Z,99.99
2019-03-01T07:48:50.341Z,99.99
2019-03-01T07:49:50.203Z,99.99
2019-03-01T07:50:52.523Z,99.99
2019-03-01T07:51:50.185Z,99.99
2019-03-01T07:52:50.185Z,99.99
2019-03-01T07:53:50.140Z,99.99
2019-03-01T07:54:52.790Z,99.99
2019-03-01T07:55:50.564Z,99.99
2019-03-01T07:56:50.122Z,99.99
2019-03-01T07:57:50.662Z,99.99
2019-03-01T07:58:51.011Z,99.99
2019-03-01T07:59:50.085Z,99.99
2019-03-01T08:00:53.278Z,99.99
2019-03-01T08:01:50.712Z,99.99
2019-03-01T08:02:50.219Z,99.99
2019-03-01T08:03:52.997Z,99.99
2019-03-01T08:04:50.028Z,99.99
2019-03-01T08:05:50.047Z,99.99
2019-03-01T08:06:50.006Z,99.99
2019-03-01T08:07:56.091Z,99.99
2019-03-01T08:08:51.063Z,99.99
2019-03-01T08:11:10.814Z,99.99
2019-03-01T08:12:10.727Z,99.99
2019-03-01T08:13:10.732Z,99.99
2019-03-01T08:14:10.757Z,99.99
2019-03-01T08:15:10.685Z,99.99
2019-03-01T08:16:10.707Z,99.99
2019-03-01T08:17:10.669Z,99.99
2019-03-01T08:18:10.662Z,99.99
2019-03-01T08:19:10.689Z,99.99
2019-03-01T08:20:10.677Z,99.99
2019-03-01T08:21:11.531Z,99.99
2019-03-01T08:22:10.621Z,99.99
2019-03-01T08:23:10.620Z,99.93
2019-03-01T08:24:11.087Z,99.99
2019-03-01T08:25:10.582Z,99.99
2019-03-01T08:26:10.581Z,99.99
2019-03-01T08:27:11.147Z,99.99
2019-03-01T08:28:10.561Z,99.99
2019-03-01T08:29:10.573Z,99.99
2019-03-01T08:30:11.347Z,99.99
2019-03-01T08:31:10.525Z,99.99
2019-03-01T08:32:10.523Z,99.99
2019-03-01T08:33:10.514Z,99.99
2019-03-01T08:34:10.540Z,99.99
2019-03-01T08:35:10.485Z,99.99
2019-03-01T08:36:10.470Z,99.99
2019-03-01T08:37:10.472Z,99.78
2019-03-01T08:38:10.458Z,99.99
2019-03-01T08:39:10.476Z,99.78
2019-03-01T08:40:11.529Z,99.99
2019-03-01T08:41:10.422Z,99.99
2019-03-01T08:42:10.424Z,99.47
2019-03-01T08:43:13.038Z,99.63
2019-03-01T08:44:10.418Z,98.80
2019-03-01T08:45:10.385Z,98.08
2019-03-01T08:46:10.568Z,98.66
2019-03-01T08:47:10.380Z,97.52
2019-03-01T08:48:10.388Z,97.83
2019-03-01T08:49:11.488Z,97.63
2019-03-01T08:50:10.360Z,97.73
2019-03-01T08:51:10.484Z,98.55
2019-03-01T08:52:10.356Z,98.14
2019-03-01T08:53:11.383Z,98.24
2019-03-01T08:54:10.344Z,97.17
2019-03-01T08:55:10.278Z,96.86
2019-03-01T08:56:10.904Z,97.38
2019-03-01T08:57:10.259Z,97.53
2019-03-01T08:58:10.241Z,97.64
2019-03-01T08:59:10.266Z,98.05
2019-03-01T09:00:10.225Z,97.53
2019-03-01T09:01:10.215Z,97.33
2019-03-01T09:02:11.880Z,97.43
2019-03-01T09:03:10.194Z,97.17
2019-03-01T09:04:14.259Z,96.75
2019-03-01T09:05:11.913Z,96.96
2019-03-01T09:06:10.162Z,96.66
2019-03-01T09:07:10.153Z,97.06
2019-03-01T09:08:10.136Z,96.55
2019-03-01T09:09:38.991Z,95.83
2019-03-01T09:10:10.148Z,94.96
2019-03-01T09:11:10.360Z,94.96
2019-03-01T09:12:10.103Z,94.96
2019-03-01T09:13:10.095Z,94.92
2019-03-01T09:14:10.106Z,94.85
2019-03-01T09:15:10.072Z,94.81
2019-03-01T09:16:10.108Z,94.92
2019-03-01T09:17:10.045Z,94.46
2019-03-01T09:18:11.612Z,93.58
2019-03-01T09:19:10.053Z,93.74
2019-03-01T09:20:10.012Z,93.79
2019-03-01T09:21:12.919Z,93.58
2019-03-01T09:22:10.027Z,93.37
2019-03-01T09:23:22.447Z,93.48
2019-03-01T09:24:10.997Z,95.02
2019-03-01T09:25:09.971Z,94.71
2019-03-01T09:26:09.943Z,94.92
2019-03-01T09:27:09.949Z,93.74
2019-03-01T09:28:09.926Z,93.48
2019-03-01T09:29:12.950Z,93.68
2019-03-01T09:30:10.923Z,94.98
2019-03-01T09:31:09.903Z,92.96
2019-03-01T09:32:09.890Z,93.12
2019-03-01T09:33:09.870Z,92.96
2019-03-01T09:34:09.868Z,92.44
2019-03-01T09:35:09.922Z,92.65
2019-03-01T09:36:09.856Z,93.64
2019-03-01T09:37:09.838Z,91.99
2019-03-01T09:38:11.355Z,92.57
2019-03-01T09:39:09.825Z,92.97
2019-03-01T09:40:09.846Z,93.70
2019-03-01T09:41:09.805Z,91.44
2019-03-01T09:42:12.450Z,92.46
2019-03-01T09:43:10.784Z,93.35
2019-03-01T09:44:09.801Z,92.63
2019-03-01T09:45:10.422Z,93.24
2019-03-01T09:46:09.765Z,93.44
2019-03-01T09:47:09.770Z,91.08
2019-03-01T09:48:12.245Z,91.91
2019-03-01T09:49:09.709Z,92.58
2019-03-01T09:50:09.726Z,90.73
2019-03-01T09:51:10.650Z,91.39
2019-03-01T09:52:09.694Z,92.79
2019-03-01T09:53:09.676Z,92.38
2019-03-01T09:54:10.257Z,91.49
2019-03-01T09:55:10.429Z,92.32
2019-03-01T09:56:12.735Z,92.63
2019-03-01T09:57:12.377Z,92.42
2019-03-01T09:58:10.616Z,92.32
2019-03-01T09:59:09.615Z,93.29
2019-03-01T10:00:09.624Z,93.54
2019-03-01T10:01:09.594Z,93.23
2019-03-01T10:02:09.601Z,93.54
2019-03-01T10:03:09.576Z,92.14
2019-03-01T10:04:09.607Z,95.06
2019-03-01T10:05:09.577Z,95.17
2019-03-01T10:06:09.542Z,96.41
2019-03-01T10:07:09.540Z,95.21
2019-03-01T10:08:09.525Z,95.52
2019-03-01T10:09:09.528Z,96.75
2019-03-01T10:10:09.545Z,96.75
2019-03-01T10:11:09.480Z,97.06
2019-03-01T10:12:09.499Z,96.55
2019-03-01T10:13:09.475Z,97.17
2019-03-01T10:14:09.461Z,96.86
2019-03-01T10:15:09.505Z,97.43
2019-03-01T10:16:09.443Z,96.61
2019-03-01T10:17:09.423Z,96.67
2019-03-01T10:18:09.403Z,96.25
2019-03-01T10:19:09.407Z,96.67
2019-03-01T10:20:09.411Z,95.68
2019-03-01T10:21:09.375Z,96.81
2019-03-01T10:22:09.368Z,95.52
2019-03-01T10:23:09.377Z,96.55
2019-03-01T10:24:09.351Z,96.86
2019-03-01T10:25:09.372Z,97.13
2019-03-01T10:26:09.338Z,96.81
2019-03-01T10:27:09.315Z,97.02
2019-03-01T10:28:09.302Z,95.78
2019-03-01T10:29:09.967Z,95.62
2019-03-01T10:30:09.317Z,96.14
2019-03-01T10:31:09.283Z,96.86
2019-03-01T10:32:09.280Z,97.02
2019-03-01T10:33:09.257Z,95.78
2019-03-01T10:34:09.259Z,94.90
2019-03-01T10:35:09.229Z,96.41
2019-03-01T10:36:09.274Z,96.66
2019-03-01T10:37:09.222Z,95.21
2019-03-01T10:38:09.204Z,96.66
2019-03-01T10:39:09.207Z,97.06
2019-03-01T10:40:09.180Z,96.55
2019-03-01T10:41:09.196Z,96.70
2019-03-01T10:42:09.162Z,96.18
2019-03-01T10:43:10.914Z,96.86
2019-03-01T10:44:09.146Z,95.73
2019-03-01T10:45:09.136Z,96.55
2019-03-01T10:46:09.158Z,94.55
2019-03-01T10:47:09.105Z,95.27
2019-03-01T10:48:09.099Z,96.56
2019-03-01T10:49:09.082Z,94.60
2019-03-01T10:50:09.087Z,94.92
2019-03-01T10:51:09.119Z,95.49
2019-03-01T10:52:09.058Z,94.77
2019-03-01T10:53:09.067Z,95.18
2019-03-01T10:54:09.041Z,93.49
2019-03-01T10:55:09.026Z,93.49
2019-03-01T10:56:09.045Z,93.59
2019-03-01T10:57:09.003Z,93.59
2019-03-01T10:58:08.993Z,93.39
2019-03-01T10:59:08.986Z,94.58
2019-03-01T11:00:08.971Z,94.07
2019-03-01T11:01:08.991Z,93.44
2019-03-01T11:02:08.952Z,93.51
2019-03-01T11:03:08.942Z,93.61
2019-03-01T11:04:08.941Z,92.21
2019-03-01T11:05:08.939Z,93.55
2019-03-01T11:06:08.947Z,94.58
2019-03-01T11:07:08.918Z,93.04
2019-03-01T11:08:08.892Z,92.95
2019-03-01T11:09:08.890Z,93.16
2019-03-01T11:10:08.874Z,92.23
2019-03-01T11:11:08.891Z,92.95
2019-03-01T11:12:08.855Z,92.13
2019-03-01T11:13:08.893Z,92.19
2019-03-01T11:14:08.843Z,92.25
2019-03-01T11:15:08.825Z,91.33
2019-03-01T11:16:08.833Z,91.88
2019-03-01T11:17:08.800Z,92.40
2019-03-01T11:18:08.788Z,90.80
2019-03-01T11:19:08.809Z,92.03
2019-03-01T11:20:08.763Z,92.29
2019-03-01T11:21:08.805Z,91.37
2019-03-01T11:22:08.745Z,91.37
2019-03-01T11:23:08.768Z,91.37
2019-03-01T11:24:09.462Z,90.75
2019-03-01T11:25:08.715Z,92.25
2019-03-01T11:26:08.747Z,91.38
2019-03-01T11:27:12.910Z,90.71
2019-03-01T11:28:10.450Z,90.09
2019-03-01T11:29:08.666Z,89.58
2019-03-01T11:30:08.661Z,90.16
2019-03-01T11:31:08.675Z,90.87
2019-03-01T11:32:08.643Z,89.84
2019-03-01T11:33:08.631Z,89.75
2019-03-01T11:34:08.623Z,88.72
2019-03-01T11:35:08.628Z,90.36
2019-03-01T11:36:08.641Z,90.22
2019-03-01T11:37:08.592Z,89.64
2019-03-01T11:38:08.581Z,88.72
2019-03-01T11:39:08.577Z,90.05
2019-03-01T11:40:08.547Z,90.87
2019-03-01T11:41:08.546Z,91.28
2019-03-01T11:42:09.467Z,90.40
2019-03-01T11:43:09.431Z,89.95
2019-03-01T11:44:08.542Z,89.89
2019-03-01T11:45:09.424Z,91.90
2019-03-01T11:46:09.477Z,90.32
2019-03-01T11:47:08.701Z,90.11
2019-03-01T11:48:08.468Z,89.70
2019-03-01T11:49:08.464Z,90.32
2019-03-01T11:50:08.485Z,90.11
2019-03-01T11:51:08.443Z,88.92
2019-03-01T11:52:08.459Z,89.89
2019-03-01T11:53:08.481Z,90.40
2019-03-01T11:54:08.474Z,89.99
2019-03-01T11:55:08.963Z,90.05
2019-03-01T11:56:08.407Z,88.62
2019-03-01T11:57:08.376Z,89.43
2019-03-01T11:58:08.400Z,89.06
2019-03-01T11:59:08.355Z,86.43
2019-03-01T12:00:08.357Z,85.69
2019-03-01T12:01:16.913Z,86.65
2019-03-01T12:02:09.315Z,88.08
2019-03-01T12:03:08.351Z,86.91
2019-03-01T12:04:08.308Z,86.05
2019-03-01T12:05:08.337Z,85.50
2019-03-01T12:06:08.289Z,83.32
2019-03-01T12:07:08.282Z,86.46
2019-03-01T12:08:08.301Z,85.58
2019-03-01T12:09:08.259Z,87.02
2019-03-01T12:10:08.248Z,86.05
2019-03-01T12:11:08.225Z,86.10
2019-03-01T12:12:08.252Z,86.75
2019-03-01T12:13:08.212Z,87.51
2019-03-01T12:14:08.204Z,88.17
2019-03-01T12:15:08.195Z,90.83
2019-03-01T12:16:08.174Z,88.17
2019-03-01T12:17:08.187Z,89.95
2019-03-01T12:18:08.152Z,90.77
2019-03-01T12:19:08.144Z,89.60
2019-03-01T12:20:08.139Z,88.72
2019-03-01T12:21:08.125Z,90.87
2019-03-01T12:22:16.730Z,90.16
2019-03-01T12:23:09.100Z,89.70
2019-03-01T12:24:08.094Z,88.06
2019-03-01T12:25:10.423Z,88.68
2019-03-01T12:26:08.071Z,89.09
2019-03-01T12:27:08.088Z,89.81
2019-03-01T12:28:08.059Z,90.05
2019-03-01T12:29:08.062Z,88.88
2019-03-01T12:30:08.026Z,89.19
2019-03-01T12:31:08.045Z,88.23
2019-03-01T12:32:08.045Z,88.27
2019-03-01T12:33:07.996Z,88.00
2019-03-01T12:34:08.013Z,90.61
2019-03-01T12:35:07.991Z,90.20
2019-03-01T12:36:08.120Z,89.50
2019-03-01T12:37:07.964Z,89.15
2019-03-01T12:38:08.000Z,88.23
2019-03-01T12:39:09.823Z,86.79
2019-03-01T12:40:07.923Z,87.14
2019-03-01T12:41:07.955Z,87.85
2019-03-01T12:42:07.944Z,88.47
2019-03-01T12:43:07.906Z,87.14
2019-03-01T12:44:07.879Z,88.47
2019-03-01T12:45:07.881Z,88.86
2019-03-01T12:46:07.875Z,90.09
2019-03-01T12:47:07.884Z,88.66
2019-03-01T12:48:07.852Z,90.14
2019-03-01T12:49:07.848Z,90.44
2019-03-01T12:50:07.822Z,89.83
2019-03-01T12:51:07.824Z,91.06
2019-03-01T12:52:07.828Z,91.37
2019-03-01T12:53:07.954Z,91.16
2019-03-01T12:54:07.999Z,90.08